sensor_id;sensor_type;location;lat;lon;timestamp;P1;durP1;ratioP1;P2;durP2;ratioP2
51298;SDS011;37382;45.192;9.790;2023-05-10T04:03:41;8.30;;;7.50;;
51298;SDS011;37382;45.192;9.790;2023-05-10T04:06:09;9.25;;;7.28;;
51298;SDS011;37382;45.192;9.790;2023-05-10T04:08:38;7.22;;;6.18;;
51298;SDS011;37382;45.192;9.790;2023-05-10T04:11:07;6.43;;;5.75;;
51298;SDS011;37382;45.192;9.790;2023-05-10T04:13:36;7.35;;;5.63;;
51298;SDS011;37382;45.192;9.790;2023-05-10T04:16:04;5.75;;;5.07;;
51298;SDS011;37382;45.192;9.790;2023-05-10T04:18:32;6.57;;;5.13;;
51298;SDS011;37382;45.192;9.790;2023-05-10T04:21:00;6.55;;;5.35;;
51298;SDS011;37382;45.192;9.790;2023-05-10T04:23:27;8.32;;;5.60;;
51298;SDS011;37382;45.192;9.790;2023-05-10T04:25:59;7.88;;;5.80;;
51298;SDS011;37382;45.192;9.790;2023-05-10T04:28:28;6.70;;;5.13;;
51298;SDS011;37382;45.192;9.790;2023-05-10T04:31:05;6.32;;;5.45;;
51298;SDS011;37382;45.192;9.790;2023-05-10T04:33:34;8.13;;;4.88;;
51298;SDS011;37382;45.192;9.790;2023-05-10T04:36:03;8.73;;;6.40;;
51298;SDS011;37382;45.192;9.790;2023-05-10T04:38:30;9.88;;;5.85;;
51298;SDS011;37382;45.192;9.790;2023-05-10T04:41:08;9.68;;;5.35;;
51298;SDS011;37382;45.192;9.790;2023-05-10T04:43:36;6.50;;;5.60;;
51298;SDS011;37382;45.192;9.790;2023-05-10T04:46:06;8.45;;;5.10;;
51298;SDS011;37382;45.192;9.790;2023-05-10T04:48:34;8.18;;;5.20;;
51298;SDS011;37382;45.192;9.790;2023-05-10T04:51:02;6.15;;;5.40;;
51298;SDS011;37382;45.192;9.790;2023-05-10T04:53:31;5.60;;;4.72;;
51298;SDS011;37382;45.192;9.790;2023-05-10T04:55:58;7.03;;;5.35;;
51298;SDS011;37382;45.192;9.790;2023-05-10T04:58:26;6.25;;;5.45;;
51298;SDS011;37382;45.192;9.790;2023-05-10T05:00:53;8.38;;;5.22;;
51298;SDS011;37382;45.192;9.790;2023-05-10T05:03:21;8.02;;;5.25;;
51298;SDS011;37382;45.192;9.790;2023-05-10T05:05:49;10.95;;;5.40;;
51298;SDS011;37382;45.192;9.790;2023-05-10T05:08:16;7.70;;;5.47;;
51298;SDS011;37382;45.192;9.790;2023-05-10T05:10:44;14.95;;;5.20;;
51298;SDS011;37382;45.192;9.790;2023-05-10T05:13:12;8.30;;;5.05;;
51298;SDS011;37382;45.192;9.790;2023-05-10T05:15:40;5.65;;;5.03;;
51298;SDS011;37382;45.192;9.790;2023-05-10T05:18:07;6.40;;;4.40;;
51298;SDS011;37382;45.192;9.790;2023-05-10T05:20:35;11.25;;;4.95;;
51298;SDS011;37382;45.192;9.790;2023-05-10T05:23:03;5.45;;;4.93;;
51298;SDS011;37382;45.192;9.790;2023-05-10T05:25:32;7.75;;;5.22;;
51298;SDS011;37382;45.192;9.790;2023-05-10T05:27:59;6.10;;;4.97;;
51298;SDS011;37382;45.192;9.790;2023-05-10T05:30:26;4.95;;;4.53;;
51298;SDS011;37382;45.192;9.790;2023-05-10T05:32:54;6.20;;;4.85;;
51298;SDS011;37382;45.192;9.790;2023-05-10T05:35:23;7.63;;;5.32;;
51298;SDS011;37382;45.192;9.790;2023-05-10T05:37:50;5.68;;;5.07;;
51298;SDS011;37382;45.192;9.790;2023-05-10T05:40:18;8.48;;;5.60;;
51298;SDS011;37382;45.192;9.790;2023-05-10T05:42:45;6.95;;;5.60;;
51298;SDS011;37382;45.192;9.790;2023-05-10T05:45:13;8.88;;;5.35;;
51298;SDS011;37382;45.192;9.790;2023-05-10T05:47:41;9.10;;;6.35;;
51298;SDS011;37382;45.192;9.790;2023-05-10T05:50:09;6.45;;;5.78;;
51298;SDS011;37382;45.192;9.790;2023-05-10T05:52:37;5.93;;;5.32;;
51298;SDS011;37382;45.192;9.790;2023-05-10T05:55:05;5.95;;;5.10;;
51298;SDS011;37382;45.192;9.790;2023-05-10T05:57:33;6.50;;;5.18;;
51298;SDS011;37382;45.192;9.790;2023-05-10T06:00:00;8.63;;;5.30;;
51298;SDS011;37382;45.192;9.790;2023-05-10T06:02:38;5.70;;;5.03;;
51298;SDS011;37382;45.192;9.790;2023-05-10T06:05:06;8.85;;;5.25;;
51298;SDS011;37382;45.192;9.790;2023-05-10T06:07:34;11.57;;;6.03;;
51298;SDS011;37382;45.192;9.790;2023-05-10T06:10:02;6.90;;;5.60;;
51298;SDS011;37382;45.192;9.790;2023-05-10T06:12:30;7.47;;;5.28;;
51298;SDS011;37382;45.192;9.790;2023-05-10T06:14:58;5.80;;;4.10;;
51298;SDS011;37382;45.192;9.790;2023-05-10T06:17:26;10.50;;;4.95;;
51298;SDS011;37382;45.192;9.790;2023-05-10T06:19:55;6.28;;;4.25;;
51298;SDS011;37382;45.192;9.790;2023-05-10T06:22:23;10.45;;;4.57;;
51298;SDS011;37382;45.192;9.790;2023-05-10T06:24:51;6.47;;;3.78;;
51298;SDS011;37382;45.192;9.790;2023-05-10T06:27:18;5.07;;;4.15;;
51298;SDS011;37382;45.192;9.790;2023-05-10T06:29:46;4.43;;;4.03;;
51298;SDS011;37382;45.192;9.790;2023-05-10T06:32:15;5.38;;;4.45;;
51298;SDS011;37382;45.192;9.790;2023-05-10T06:34:42;7.35;;;4.35;;
51298;SDS011;37382;45.192;9.790;2023-05-10T06:37:10;6.80;;;4.15;;
51298;SDS011;37382;45.192;9.790;2023-05-10T06:39:38;5.38;;;4.53;;
51298;SDS011;37382;45.192;9.790;2023-05-10T06:42:06;9.63;;;4.57;;
51298;SDS011;37382;45.192;9.790;2023-05-10T06:44:33;5.88;;;4.53;;
51298;SDS011;37382;45.192;9.790;2023-05-10T06:47:01;9.30;;;4.55;;
51298;SDS011;37382;45.192;9.790;2023-05-10T06:49:28;8.23;;;4.68;;
51298;SDS011;37382;45.192;9.790;2023-05-10T06:51:56;6.93;;;4.22;;
51298;SDS011;37382;45.192;9.790;2023-05-10T06:54:23;6.18;;;4.13;;
51298;SDS011;37382;45.192;9.790;2023-05-10T06:56:51;6.80;;;4.82;;
51298;SDS011;37382;45.192;9.790;2023-05-10T06:59:19;11.70;;;4.55;;
51298;SDS011;37382;45.192;9.790;2023-05-10T07:01:48;5.35;;;4.47;;
51298;SDS011;37382;45.192;9.790;2023-05-10T07:04:16;7.45;;;4.30;;
51298;SDS011;37382;45.192;9.790;2023-05-10T07:06:45;7.78;;;4.50;;
51298;SDS011;37382;45.192;9.790;2023-05-10T07:11:43;6.78;;;3.92;;
51298;SDS011;37382;45.192;9.790;2023-05-10T07:14:11;5.78;;;3.95;;
51298;SDS011;37382;45.192;9.790;2023-05-10T07:16:38;5.55;;;3.70;;
51298;SDS011;37382;45.192;9.790;2023-05-10T07:19:06;4.50;;;4.10;;
51298;SDS011;37382;45.192;9.790;2023-05-10T07:21:34;6.72;;;4.00;;
51298;SDS011;37382;45.192;9.790;2023-05-10T07:24:02;5.32;;;3.97;;
51298;SDS011;37382;45.192;9.790;2023-05-10T07:26:33;4.75;;;3.80;;
51298;SDS011;37382;45.192;9.790;2023-05-10T07:29:00;5.53;;;3.72;;
51298;SDS011;37382;45.192;9.790;2023-05-10T07:31:28;5.03;;;3.60;;
51298;SDS011;37382;45.192;9.790;2023-05-10T07:33:55;5.50;;;3.92;;
51298;SDS011;37382;45.192;9.790;2023-05-10T07:36:23;5.03;;;3.80;;
51298;SDS011;37382;45.192;9.790;2023-05-10T07:38:51;3.58;;;3.08;;
51298;SDS011;37382;45.192;9.790;2023-05-10T07:41:19;5.00;;;3.17;;
51298;SDS011;37382;45.192;9.790;2023-05-10T07:43:48;3.20;;;2.80;;
51298;SDS011;37382;45.192;9.790;2023-05-10T07:46:15;4.47;;;3.30;;
51298;SDS011;37382;45.192;9.790;2023-05-10T07:48:44;4.03;;;3.00;;
51298;SDS011;37382;45.192;9.790;2023-05-10T07:51:11;3.20;;;2.92;;
51298;SDS011;37382;45.192;9.790;2023-05-10T07:53:39;6.38;;;3.13;;
51298;SDS011;37382;45.192;9.790;2023-05-10T07:56:19;8.57;;;2.92;;
51298;SDS011;37382;45.192;9.790;2023-05-10T07:58:50;4.22;;;2.90;;
51298;SDS011;37382;45.192;9.790;2023-05-10T08:01:19;3.72;;;2.63;;
51298;SDS011;37382;45.192;9.790;2023-05-10T08:03:47;3.25;;;2.92;;
51298;SDS011;37382;45.192;9.790;2023-05-10T08:06:16;6.38;;;3.00;;
51298;SDS011;37382;45.192;9.790;2023-05-10T08:08:48;6.80;;;3.20;;
51298;SDS011;37382;45.192;9.790;2023-05-10T08:11:21;5.03;;;3.13;;
51298;SDS011;37382;45.192;9.790;2023-05-10T08:13:49;4.47;;;3.17;;
51298;SDS011;37382;45.192;9.790;2023-05-10T08:16:18;3.35;;;3.05;;
51298;SDS011;37382;45.192;9.790;2023-05-10T08:18:46;3.45;;;2.90;;
51298;SDS011;37382;45.192;9.790;2023-05-10T08:21:14;6.18;;;3.38;;
51298;SDS011;37382;45.192;9.790;2023-05-10T08:23:42;5.57;;;3.53;;
51298;SDS011;37382;45.192;9.790;2023-05-10T08:26:11;3.92;;;3.30;;
51298;SDS011;37382;45.192;9.790;2023-05-10T08:28:39;4.05;;;2.90;;
51298;SDS011;37382;45.192;9.790;2023-05-10T08:31:06;3.03;;;2.65;;
51298;SDS011;37382;45.192;9.790;2023-05-10T08:33:34;3.83;;;3.42;;
51298;SDS011;37382;45.192;9.790;2023-05-10T08:36:01;3.85;;;3.08;;
51298;SDS011;37382;45.192;9.790;2023-05-10T08:38:29;6.97;;;2.83;;
51298;SDS011;37382;45.192;9.790;2023-05-10T08:40:56;6.22;;;3.10;;
51298;SDS011;37382;45.192;9.790;2023-05-10T08:43:27;5.05;;;2.90;;
51298;SDS011;37382;45.192;9.790;2023-05-10T08:45:56;4.43;;;2.97;;
51298;SDS011;37382;45.192;9.790;2023-05-10T08:48:28;3.58;;;2.90;;
51298;SDS011;37382;45.192;9.790;2023-05-10T08:50:58;4.40;;;3.03;;
51298;SDS011;37382;45.192;9.790;2023-05-10T08:53:28;4.57;;;3.53;;
51298;SDS011;37382;45.192;9.790;2023-05-10T08:55:58;7.38;;;3.72;;
51298;SDS011;37382;45.192;9.790;2023-05-10T08:58:25;8.98;;;3.92;;
51298;SDS011;37382;45.192;9.790;2023-05-10T09:00:53;10.65;;;4.97;;
51298;SDS011;37382;45.192;9.790;2023-05-10T09:03:21;5.57;;;4.57;;
51298;SDS011;37382;45.192;9.790;2023-05-10T09:05:49;5.25;;;4.30;;
51298;SDS011;37382;45.192;9.790;2023-05-10T09:08:18;5.38;;;4.05;;
51298;SDS011;37382;45.192;9.790;2023-05-10T09:10:45;5.03;;;3.70;;
51298;SDS011;37382;45.192;9.790;2023-05-10T09:13:15;4.45;;;3.70;;
51298;SDS011;37382;45.192;9.790;2023-05-10T09:15:43;5.32;;;3.45;;
51298;SDS011;37382;45.192;9.790;2023-05-10T09:18:11;5.28;;;3.58;;
51298;SDS011;37382;45.192;9.790;2023-05-10T09:20:40;5.10;;;3.40;;
51298;SDS011;37382;45.192;9.790;2023-05-10T09:23:08;5.80;;;3.47;;
51298;SDS011;37382;45.192;9.790;2023-05-10T09:25:36;8.40;;;3.15;;
51298;SDS011;37382;45.192;9.790;2023-05-10T09:28:06;4.03;;;2.90;;
51298;SDS011;37382;45.192;9.790;2023-05-10T09:30:35;3.47;;;2.70;;
51298;SDS011;37382;45.192;9.790;2023-05-10T09:33:03;4.50;;;2.80;;
51298;SDS011;37382;45.192;9.790;2023-05-10T09:35:32;4.35;;;2.60;;
51298;SDS011;37382;45.192;9.790;2023-05-10T09:38:02;7.40;;;2.90;;
51298;SDS011;37382;45.192;9.790;2023-05-10T09:40:31;3.80;;;2.60;;
51298;SDS011;37382;45.192;9.790;2023-05-10T09:43:08;4.65;;;3.05;;
51298;SDS011;37382;45.192;9.790;2023-05-10T09:45:35;4.50;;;3.20;;
51298;SDS011;37382;45.192;9.790;2023-05-10T09:48:05;3.83;;;3.20;;
51298;SDS011;37382;45.192;9.790;2023-05-10T09:50:33;5.60;;;3.55;;
51298;SDS011;37382;45.192;9.790;2023-05-10T09:53:02;5.43;;;3.15;;
51298;SDS011;37382;45.192;9.790;2023-05-10T09:55:40;5.15;;;3.70;;
51298;SDS011;37382;45.192;9.790;2023-05-10T09:58:12;6.18;;;3.72;;
51298;SDS011;37382;45.192;9.790;2023-05-10T10:00:42;7.25;;;4.10;;
51298;SDS011;37382;45.192;9.790;2023-05-10T10:03:15;4.75;;;3.90;;
51298;SDS011;37382;45.192;9.790;2023-05-10T10:05:47;8.88;;;3.97;;
51298;SDS011;37382;45.192;9.790;2023-05-10T10:08:17;8.43;;;3.85;;
51298;SDS011;37382;45.192;9.790;2023-05-10T10:10:44;6.85;;;3.63;;
51298;SDS011;37382;45.192;9.790;2023-05-10T10:13:13;6.60;;;4.05;;
51298;SDS011;37382;45.192;9.790;2023-05-10T10:15:42;5.40;;;4.00;;
51298;SDS011;37382;45.192;9.790;2023-05-10T10:18:14;4.30;;;3.65;;
51298;SDS011;37382;45.192;9.790;2023-05-10T10:20:42;7.75;;;3.95;;
51298;SDS011;37382;45.192;9.790;2023-05-10T10:23:10;6.70;;;3.35;;
51298;SDS011;37382;45.192;9.790;2023-05-10T10:25:37;6.80;;;3.50;;
51298;SDS011;37382;45.192;9.790;2023-05-10T10:28:09;4.00;;;3.60;;
51298;SDS011;37382;45.192;9.790;2023-05-10T10:30:42;6.38;;;3.75;;
51298;SDS011;37382;45.192;9.790;2023-05-10T10:35:59;5.72;;;4.00;;
51298;SDS011;37382;45.192;9.790;2023-05-10T10:38:36;3.65;;;3.25;;
51298;SDS011;37382;45.192;9.790;2023-05-10T10:41:09;5.28;;;3.70;;
51298;SDS011;37382;45.192;9.790;2023-05-10T10:43:38;3.40;;;3.10;;
51298;SDS011;37382;45.192;9.790;2023-05-10T10:46:16;3.85;;;3.42;;
51298;SDS011;37382;45.192;9.790;2023-05-10T10:48:49;5.97;;;3.63;;
51298;SDS011;37382;45.192;9.790;2023-05-10T10:51:38;5.72;;;3.88;;
51298;SDS011;37382;45.192;9.790;2023-05-10T10:56:37;7.85;;;4.15;;
51298;SDS011;37382;45.192;9.790;2023-05-10T10:59:05;5.68;;;4.22;;
51298;SDS011;37382;45.192;9.790;2023-05-10T11:01:33;4.30;;;3.90;;
51298;SDS011;37382;45.192;9.790;2023-05-10T11:06:33;4.18;;;3.78;;
51298;SDS011;37382;45.192;9.790;2023-05-10T11:09:12;3.67;;;3.17;;
51298;SDS011;37382;45.192;9.790;2023-05-10T11:11:51;6.35;;;3.35;;
51298;SDS011;37382;45.192;9.790;2023-05-10T11:14:22;3.40;;;3.10;;
51298;SDS011;37382;45.192;9.790;2023-05-10T11:16:50;3.92;;;3.22;;
51298;SDS011;37382;45.192;9.790;2023-05-10T11:19:18;4.97;;;3.60;;
51298;SDS011;37382;45.192;9.790;2023-05-10T11:21:47;4.47;;;3.42;;
51298;SDS011;37382;45.192;9.790;2023-05-10T11:24:17;4.82;;;3.30;;
51298;SDS011;37382;45.192;9.790;2023-05-10T11:26:49;3.88;;;3.00;;
51298;SDS011;37382;45.192;9.790;2023-05-10T11:29:22;5.88;;;3.83;;
51298;SDS011;37382;45.192;9.790;2023-05-10T11:31:50;4.53;;;3.60;;
51298;SDS011;37382;45.192;9.790;2023-05-10T11:34:31;4.05;;;3.40;;
51298;SDS011;37382;45.192;9.790;2023-05-10T11:37:02;3.53;;;3.22;;
51298;SDS011;37382;45.192;9.790;2023-05-10T11:39:30;4.10;;;2.97;;
51298;SDS011;37382;45.192;9.790;2023-05-10T11:41:58;4.25;;;2.90;;
51298;SDS011;37382;45.192;9.790;2023-05-10T11:44:30;3.67;;;3.00;;
51298;SDS011;37382;45.192;9.790;2023-05-10T11:46:59;5.60;;;3.10;;
51298;SDS011;37382;45.192;9.790;2023-05-10T11:52:06;4.20;;;2.80;;
51298;SDS011;37382;45.192;9.790;2023-05-10T11:54:34;4.93;;;2.60;;
51298;SDS011;37382;45.192;9.790;2023-05-10T11:57:03;3.70;;;2.95;;
51298;SDS011;37382;45.192;9.790;2023-05-10T11:59:31;3.97;;;3.50;;
51298;SDS011;37382;45.192;9.790;2023-05-10T12:01:59;5.00;;;3.42;;
51298;SDS011;37382;45.192;9.790;2023-05-10T12:04:27;5.57;;;3.55;;
51298;SDS011;37382;45.192;9.790;2023-05-10T12:06:56;5.85;;;4.00;;
51298;SDS011;37382;45.192;9.790;2023-05-10T12:09:24;4.82;;;3.78;;
51298;SDS011;37382;45.192;9.790;2023-05-10T12:12:09;13.23;;;6.43;;
51298;SDS011;37382;45.192;9.790;2023-05-10T12:14:36;5.32;;;4.32;;
51298;SDS011;37382;45.192;9.790;2023-05-10T12:17:04;5.13;;;3.35;;
51298;SDS011;37382;45.192;9.790;2023-05-10T12:19:38;3.63;;;3.33;;
51298;SDS011;37382;45.192;9.790;2023-05-10T12:22:06;3.83;;;3.00;;
51298;SDS011;37382;45.192;9.790;2023-05-10T12:24:34;3.22;;;2.92;;
51298;SDS011;37382;45.192;9.790;2023-05-10T12:27:07;3.50;;;3.20;;
51298;SDS011;37382;45.192;9.790;2023-05-10T12:29:36;3.67;;;3.22;;
51298;SDS011;37382;45.192;9.790;2023-05-10T12:32:04;6.57;;;3.60;;
51298;SDS011;37382;45.192;9.790;2023-05-10T12:34:32;5.65;;;3.33;;
51298;SDS011;37382;45.192;9.790;2023-05-10T12:37:02;3.75;;;2.90;;
51298;SDS011;37382;45.192;9.790;2023-05-10T12:39:40;3.05;;;2.50;;
51298;SDS011;37382;45.192;9.790;2023-05-10T12:42:10;2.92;;;2.47;;
51298;SDS011;37382;45.192;9.790;2023-05-10T12:44:38;3.40;;;2.60;;
51298;SDS011;37382;45.192;9.790;2023-05-10T12:47:06;4.10;;;2.80;;
51298;SDS011;37382;45.192;9.790;2023-05-10T12:49:34;4.85;;;3.20;;
51298;SDS011;37382;45.192;9.790;2023-05-10T12:52:02;6.43;;;3.20;;
51298;SDS011;37382;45.192;9.790;2023-05-10T12:54:30;3.67;;;3.05;;
51298;SDS011;37382;45.192;9.790;2023-05-10T12:56:57;3.80;;;2.80;;
51298;SDS011;37382;45.192;9.790;2023-05-10T12:59:24;4.43;;;3.00;;
51298;SDS011;37382;45.192;9.790;2023-05-10T13:01:52;5.13;;;3.05;;
51298;SDS011;37382;45.192;9.790;2023-05-10T13:04:20;3.90;;;3.15;;
51298;SDS011;37382;45.192;9.790;2023-05-10T13:06:47;3.03;;;2.67;;
51298;SDS011;37382;45.192;9.790;2023-05-10T13:09:15;3.22;;;2.75;;
51298;SDS011;37382;45.192;9.790;2023-05-10T13:11:42;5.72;;;3.30;;
51298;SDS011;37382;45.192;9.790;2023-05-10T13:14:10;3.50;;;2.83;;
51298;SDS011;37382;45.192;9.790;2023-05-10T13:16:38;6.30;;;2.90;;
51298;SDS011;37382;45.192;9.790;2023-05-10T13:19:05;7.63;;;3.05;;
51298;SDS011;37382;45.192;9.790;2023-05-10T13:21:33;3.53;;;3.20;;
51298;SDS011;37382;45.192;9.790;2023-05-10T13:24:01;4.55;;;3.63;;
51298;SDS011;37382;45.192;9.790;2023-05-10T13:26:29;3.78;;;2.90;;
51298;SDS011;37382;45.192;9.790;2023-05-10T13:28:57;4.55;;;3.25;;
51298;SDS011;37382;45.192;9.790;2023-05-10T13:31:24;3.35;;;2.90;;
51298;SDS011;37382;45.192;9.790;2023-05-10T13:33:52;2.97;;;2.70;;
51298;SDS011;37382;45.192;9.790;2023-05-10T13:36:19;4.38;;;2.90;;
51298;SDS011;37382;45.192;9.790;2023-05-10T13:38:47;4.05;;;3.47;;
51298;SDS011;37382;45.192;9.790;2023-05-10T13:41:14;5.20;;;3.70;;
51298;SDS011;37382;45.192;9.790;2023-05-10T13:43:42;4.60;;;3.30;;
51298;SDS011;37382;45.192;9.790;2023-05-10T13:46:09;3.65;;;3.35;;
51298;SDS011;37382;45.192;9.790;2023-05-10T13:48:38;3.78;;;3.17;;
51298;SDS011;37382;45.192;9.790;2023-05-10T13:51:05;3.25;;;2.95;;
51298;SDS011;37382;45.192;9.790;2023-05-10T13:53:33;4.57;;;3.80;;
51298;SDS011;37382;45.192;9.790;2023-05-10T13:56:00;3.75;;;3.40;;
51298;SDS011;37382;45.192;9.790;2023-05-10T13:58:29;3.65;;;3.00;;
51298;SDS011;37382;45.192;9.790;2023-05-10T14:00:57;5.80;;;3.30;;
51298;SDS011;37382;45.192;9.790;2023-05-10T14:03:24;3.60;;;3.20;;
51298;SDS011;37382;45.192;9.790;2023-05-10T14:05:52;3.65;;;3.28;;
51298;SDS011;37382;45.192;9.790;2023-05-10T14:08:19;4.55;;;2.80;;
51298;SDS011;37382;45.192;9.790;2023-05-10T14:10:47;3.63;;;3.10;;
51298;SDS011;37382;45.192;9.790;2023-05-10T14:13:16;3.92;;;3.35;;
51298;SDS011;37382;45.192;9.790;2023-05-10T14:15:43;4.38;;;3.40;;
51298;SDS011;37382;45.192;9.790;2023-05-10T14:18:11;5.65;;;3.13;;
51298;SDS011;37382;45.192;9.790;2023-05-10T14:20:38;4.18;;;3.38;;
51298;SDS011;37382;45.192;9.790;2023-05-10T14:23:06;3.50;;;3.20;;
51298;SDS011;37382;45.192;9.790;2023-05-10T14:25:38;3.27;;;3.00;;
51298;SDS011;37382;45.192;9.790;2023-05-10T14:28:06;3.28;;;2.97;;
51298;SDS011;37382;45.192;9.790;2023-05-10T14:30:34;4.13;;;3.17;;
51298;SDS011;37382;45.192;9.790;2023-05-10T14:33:02;3.30;;;3.00;;
51298;SDS011;37382;45.192;9.790;2023-05-10T14:35:29;4.28;;;2.75;;
51298;SDS011;37382;45.192;9.790;2023-05-10T14:37:58;3.25;;;2.95;;
51298;SDS011;37382;45.192;9.790;2023-05-10T14:40:25;6.00;;;3.40;;
51298;SDS011;37382;45.192;9.790;2023-05-10T14:42:53;3.30;;;3.00;;
51298;SDS011;37382;45.192;9.790;2023-05-10T14:45:22;5.80;;;3.15;;
51298;SDS011;37382;45.192;9.790;2023-05-10T14:47:50;3.97;;;3.47;;
51298;SDS011;37382;45.192;9.790;2023-05-10T14:50:18;4.22;;;3.75;;
51298;SDS011;37382;45.192;9.790;2023-05-10T14:53:02;6.80;;;3.45;;
51298;SDS011;37382;45.192;9.790;2023-05-10T14:55:30;5.43;;;3.80;;
51298;SDS011;37382;45.192;9.790;2023-05-10T14:57:58;4.10;;;3.70;;
51298;SDS011;37382;45.192;9.790;2023-05-10T15:00:27;5.22;;;3.63;;
51298;SDS011;37382;45.192;9.790;2023-05-10T15:02:56;5.68;;;3.72;;
51298;SDS011;37382;45.192;9.790;2023-05-10T15:05:26;6.15;;;3.70;;
51298;SDS011;37382;45.192;9.790;2023-05-10T15:07:54;4.13;;;3.80;;
51298;SDS011;37382;45.192;9.790;2023-05-10T15:10:22;4.57;;;4.18;;
51298;SDS011;37382;45.192;9.790;2023-05-10T15:12:50;4.10;;;3.70;;
51298;SDS011;37382;45.192;9.790;2023-05-10T15:15:17;4.00;;;3.60;;
51298;SDS011;37382;45.192;9.790;2023-05-10T15:17:45;5.78;;;4.22;;
51298;SDS011;37382;45.192;9.790;2023-05-10T15:20:37;4.20;;;3.80;;
51298;SDS011;37382;45.192;9.790;2023-05-10T15:23:06;6.80;;;5.95;;
51298;SDS011;37382;45.192;9.790;2023-05-10T15:25:34;8.40;;;6.45;;
51298;SDS011;37382;45.192;9.790;2023-05-10T15:28:04;4.10;;;3.78;;
51298;SDS011;37382;45.192;9.790;2023-05-10T15:30:32;4.22;;;3.50;;
51298;SDS011;37382;45.192;9.790;2023-05-10T15:33:00;3.60;;;3.30;;
51298;SDS011;37382;45.192;9.790;2023-05-10T15:35:27;6.85;;;4.45;;
51298;SDS011;37382;45.192;9.790;2023-05-10T15:37:55;3.90;;;3.50;;
51298;SDS011;37382;45.192;9.790;2023-05-10T15:40:22;4.20;;;3.47;;
51298;SDS011;37382;45.192;9.790;2023-05-10T15:42:49;6.85;;;3.70;;
51298;SDS011;37382;45.192;9.790;2023-05-10T15:45:17;4.20;;;3.60;;
51298;SDS011;37382;45.192;9.790;2023-05-10T15:47:45;3.97;;;3.67;;
51298;SDS011;37382;45.192;9.790;2023-05-10T15:50:14;4.20;;;3.65;;
51298;SDS011;37382;45.192;9.790;2023-05-10T15:52:42;3.55;;;3.25;;
51298;SDS011;37382;45.192;9.790;2023-05-10T15:55:10;4.30;;;3.90;;
51298;SDS011;37382;45.192;9.790;2023-05-10T15:57:42;4.68;;;4.10;;
51298;SDS011;37382;45.192;9.790;2023-05-10T16:00:10;4.13;;;3.72;;
51298;SDS011;37382;45.192;9.790;2023-05-10T16:02:40;4.72;;;3.58;;
51298;SDS011;37382;45.192;9.790;2023-05-10T16:05:08;4.28;;;3.88;;
51298;SDS011;37382;45.192;9.790;2023-05-10T16:07:37;3.65;;;3.35;;
51298;SDS011;37382;45.192;9.790;2023-05-10T16:10:07;3.38;;;3.08;;
51298;SDS011;37382;45.192;9.790;2023-05-10T16:12:36;9.55;;;3.40;;
51298;SDS011;37382;45.192;9.790;2023-05-10T16:15:05;4.35;;;3.28;;
51298;SDS011;37382;45.192;9.790;2023-05-10T16:17:33;4.50;;;3.63;;
51298;SDS011;37382;45.192;9.790;2023-05-10T16:20:01;5.07;;;4.22;;
51298;SDS011;37382;45.192;9.790;2023-05-10T16:22:29;8.35;;;4.38;;
51298;SDS011;37382;45.192;9.790;2023-05-10T16:24:57;3.67;;;3.33;;
51298;SDS011;37382;45.192;9.790;2023-05-10T16:27:25;4.30;;;3.30;;
51298;SDS011;37382;45.192;9.790;2023-05-10T16:29:56;4.72;;;3.47;;
51298;SDS011;37382;45.192;9.790;2023-05-10T16:32:23;3.58;;;3.28;;
51298;SDS011;37382;45.192;9.790;2023-05-10T16:34:51;6.55;;;3.50;;
51298;SDS011;37382;45.192;9.790;2023-05-10T16:37:19;4.30;;;3.70;;
51298;SDS011;37382;45.192;9.790;2023-05-10T16:39:46;7.07;;;3.90;;
51298;SDS011;37382;45.192;9.790;2023-05-10T16:42:14;4.32;;;3.25;;
51298;SDS011;37382;45.192;9.790;2023-05-10T16:44:41;4.85;;;4.10;;
51298;SDS011;37382;45.192;9.790;2023-05-10T16:47:09;7.90;;;4.40;;
51298;SDS011;37382;45.192;9.790;2023-05-10T16:49:36;5.22;;;4.72;;
51298;SDS011;37382;45.192;9.790;2023-05-10T16:52:04;6.93;;;4.50;;
51298;SDS011;37382;45.192;9.790;2023-05-10T16:54:31;6.03;;;4.68;;
51298;SDS011;37382;45.192;9.790;2023-05-10T16:56:58;7.30;;;4.70;;
51298;SDS011;37382;45.192;9.790;2023-05-10T16:59:27;4.40;;;3.50;;
51298;SDS011;37382;45.192;9.790;2023-05-10T17:01:56;5.20;;;4.70;;
51298;SDS011;37382;45.192;9.790;2023-05-10T17:04:24;9.68;;;4.70;;
51298;SDS011;37382;45.192;9.790;2023-05-10T17:06:52;5.72;;;4.70;;
51298;SDS011;37382;45.192;9.790;2023-05-10T17:09:19;4.35;;;3.90;;
51298;SDS011;37382;45.192;9.790;2023-05-10T17:11:47;3.85;;;3.45;;
51298;SDS011;37382;45.192;9.790;2023-05-10T17:14:14;4.22;;;3.28;;
51298;SDS011;37382;45.192;9.790;2023-05-10T17:16:42;4.13;;;3.58;;
51298;SDS011;37382;45.192;9.790;2023-05-10T17:19:09;4.35;;;3.33;;
51298;SDS011;37382;45.192;9.790;2023-05-10T17:21:37;5.80;;;3.55;;
51298;SDS011;37382;45.192;9.790;2023-05-10T17:24:05;3.83;;;3.45;;
51298;SDS011;37382;45.192;9.790;2023-05-10T17:26:32;4.10;;;3.10;;
51298;SDS011;37382;45.192;9.790;2023-05-10T17:29:00;5.93;;;3.17;;
51298;SDS011;37382;45.192;9.790;2023-05-10T17:31:31;2.85;;;2.40;;
51298;SDS011;37382;45.192;9.790;2023-05-10T17:33:59;3.15;;;2.85;;
51298;SDS011;37382;45.192;9.790;2023-05-10T17:36:28;6.68;;;3.78;;
51298;SDS011;37382;45.192;9.790;2023-05-10T17:38:55;3.78;;;3.33;;
51298;SDS011;37382;45.192;9.790;2023-05-10T17:41:23;6.13;;;3.58;;
51298;SDS011;37382;45.192;9.790;2023-05-10T17:43:50;3.70;;;3.40;;
51298;SDS011;37382;45.192;9.790;2023-05-10T17:46:19;3.40;;;3.10;;
51298;SDS011;37382;45.192;9.790;2023-05-10T17:48:47;4.07;;;3.22;;
51298;SDS011;37382;45.192;9.790;2023-05-10T17:51:14;3.08;;;2.78;;
51298;SDS011;37382;45.192;9.790;2023-05-10T17:53:42;6.20;;;3.10;;
51298;SDS011;37382;45.192;9.790;2023-05-10T17:56:10;5.40;;;3.30;;
51298;SDS011;37382;45.192;9.790;2023-05-10T17:58:37;3.35;;;3.05;;
51298;SDS011;37382;45.192;9.790;2023-05-10T18:01:05;3.25;;;2.88;;
51298;SDS011;37382;45.192;9.790;2023-05-10T18:03:33;5.05;;;3.20;;
51298;SDS011;37382;45.192;9.790;2023-05-10T18:06:02;6.90;;;3.60;;
51298;SDS011;37382;45.192;9.790;2023-05-10T18:08:30;5.30;;;2.92;;
51298;SDS011;37382;45.192;9.790;2023-05-10T18:10:59;4.15;;;3.05;;
51298;SDS011;37382;45.192;9.790;2023-05-10T18:13:27;5.63;;;3.38;;
51298;SDS011;37382;45.192;9.790;2023-05-10T18:15:55;4.50;;;3.50;;
51298;SDS011;37382;45.192;9.790;2023-05-10T18:18:23;11.25;;;4.03;;
51298;SDS011;37382;45.192;9.790;2023-05-10T18:20:51;5.18;;;4.03;;
51298;SDS011;37382;45.192;9.790;2023-05-10T18:23:23;9.50;;;3.95;;
51298;SDS011;37382;45.192;9.790;2023-05-10T18:25:50;4.95;;;3.80;;
51298;SDS011;37382;45.192;9.790;2023-05-10T18:28:19;5.35;;;3.50;;
51298;SDS011;37382;45.192;9.790;2023-05-10T18:30:47;5.82;;;3.92;;
51298;SDS011;37382;45.192;9.790;2023-05-10T18:33:15;4.95;;;4.00;;
51298;SDS011;37382;45.192;9.790;2023-05-10T18:35:42;9.15;;;4.10;;
51298;SDS011;37382;45.192;9.790;2023-05-10T18:38:11;7.95;;;3.95;;
51298;SDS011;37382;45.192;9.790;2023-05-10T18:40:39;5.45;;;3.95;;
51298;SDS011;37382;45.192;9.790;2023-05-10T18:43:07;7.13;;;3.75;;
51298;SDS011;37382;45.192;9.790;2023-05-10T18:45:35;6.28;;;4.00;;
51298;SDS011;37382;45.192;9.790;2023-05-10T18:48:02;7.43;;;3.85;;
51298;SDS011;37382;45.192;9.790;2023-05-10T18:50:30;6.78;;;4.32;;
51298;SDS011;37382;45.192;9.790;2023-05-10T18:52:59;5.97;;;4.00;;
51298;SDS011;37382;45.192;9.790;2023-05-10T18:55:26;6.03;;;4.28;;
51298;SDS011;37382;45.192;9.790;2023-05-10T18:57:54;4.93;;;4.43;;
51298;SDS011;37382;45.192;9.790;2023-05-10T19:00:22;8.63;;;3.85;;
51298;SDS011;37382;45.192;9.790;2023-05-10T19:02:50;4.63;;;4.20;;
51298;SDS011;37382;45.192;9.790;2023-05-10T19:05:19;5.63;;;3.95;;
51298;SDS011;37382;45.192;9.790;2023-05-10T19:07:46;4.68;;;3.88;;
51298;SDS011;37382;45.192;9.790;2023-05-10T19:10:14;5.00;;;4.05;;
51298;SDS011;37382;45.192;9.790;2023-05-10T19:12:42;7.18;;;3.78;;